Pagina principale
METAR-TAF:

METAR-TAF

Aeroporti :

Aeroporto di Spalato-Castelli

Spalato, Croazia

latitudine: 43-32N, longitudine: 016-18E, altezza: 19 m

Osservazione

Il bollettino è stato emesso 14 minuti fa, alle 17:30 UTC
Vento 3 kt da est, variando fra est/nord-est e est/sud-est
Temperature 18°C
Umidità 56%
Pressione 1013 hPa
Visibilità 10 km o più
Poco nuvoloso ad un'altezza di 5500 ft

METAR: LDSP 311730Z 10003KT 060V120 9999 FEW055 18/09 Q1013 NOSIG

Ora: 19:44 (17:44 UTC)

Previsione

Il bollettino è stato emesso 19 minuti fa, alle 17:25 UTC
Previsione valida dal 31 alle 18 UTC al 01 alle 18 UTC
Vento 6 kt da nord-est
Visibilità 10 km o più
Poco nuvoloso ad un'altezza di 5000 ft
Evoluzione graduale
dal 01 alle 10 UTC al 01 alle 12 UTC
Vento 8 kt da sud-ovest
Evoluzione graduale
dal 01 alle 14 UTC al 01 alle 16 UTC
Vento 8 kt da nord-ovest

TAF: LDSP 311725Z 3118/0118 05006KT 9999 FEW050 TX23/0113Z TN14/0104Z BECMG 0110/0112 23008KT BECMG 0114/0116 31008KT

Osservazioni e previsioni meteorologiche di più di 4000 aeroporti (messaggi METAR e TAF).

Le stazioni disponibili sono rappresentate dai dischi gialli e rossi sulla carta.

Puntare il mouse per vedere il nome della stazione.

Clicca sopra per visualizzare le osservazioni e previsioni meteorologiche.

Per cambiare la mappa : fare clic sui pulsanti verdi con una croce nera per ingrandire, il pulsante verde con un trattino per diminuire, o sulla freccia verde per le mappe adiacenti.


METAR-TAF: